sensor_id;sensor_type;location;lat;lon;timestamp;P1;durP1;ratioP1;P2;durP2;ratioP2
45905;SDS011;31619;49.008;12.106;2023-01-19T00:05:24;11.83;;;7.83;;
45905;SDS011;31619;49.008;12.106;2023-01-19T00:07:50;7.57;;;6.87;;
45905;SDS011;31619;49.008;12.106;2023-01-19T00:10:15;10.67;;;8.73;;
45905;SDS011;31619;49.008;12.106;2023-01-19T00:12:41;8.30;;;7.40;;
45905;SDS011;31619;49.008;12.106;2023-01-19T00:15:07;9.93;;;6.93;;
45905;SDS011;31619;49.008;12.106;2023-01-19T00:17:33;9.40;;;7.40;;
45905;SDS011;31619;49.008;12.106;2023-01-19T00:19:58;10.13;;;7.93;;
45905;SDS011;31619;49.008;12.106;2023-01-19T00:22:24;8.30;;;7.37;;
45905;SDS011;31619;49.008;12.106;2023-01-19T00:24:49;9.37;;;7.80;;
45905;SDS011;31619;49.008;12.106;2023-01-19T00:27:15;11.77;;;7.47;;
45905;SDS011;31619;49.008;12.106;2023-01-19T00:29:41;8.63;;;7.70;;
45905;SDS011;31619;49.008;12.106;2023-01-19T00:32:06;11.50;;;7.97;;
45905;SDS011;31619;49.008;12.106;2023-01-19T00:34:32;7.70;;;6.90;;
45905;SDS011;31619;49.008;12.106;2023-01-19T00:37:06;5.40;;;4.90;;
45905;SDS011;31619;49.008;12.106;2023-01-19T00:39:35;8.67;;;7.53;;
45905;SDS011;31619;49.008;12.106;2023-01-19T00:42:01;8.80;;;7.07;;
45905;SDS011;31619;49.008;12.106;2023-01-19T00:44:45;13.13;;;7.07;;
45905;SDS011;31619;49.008;12.106;2023-01-19T00:47:10;9.40;;;6.87;;
45905;SDS011;31619;49.008;12.106;2023-01-19T00:49:36;9.00;;;7.30;;
45905;SDS011;31619;49.008;12.106;2023-01-19T00:52:01;8.30;;;7.23;;
45905;SDS011;31619;49.008;12.106;2023-01-19T00:54:27;10.17;;;8.13;;
45905;SDS011;31619;49.008;12.106;2023-01-19T00:56:53;9.80;;;7.17;;
45905;SDS011;31619;49.008;12.106;2023-01-19T00:59:18;10.27;;;7.03;;
45905;SDS011;31619;49.008;12.106;2023-01-19T01:01:44;9.33;;;7.73;;
45905;SDS011;31619;49.008;12.106;2023-01-19T01:04:09;10.03;;;6.83;;
45905;SDS011;31619;49.008;12.106;2023-01-19T01:06:37;8.77;;;7.87;;
45905;SDS011;31619;49.008;12.106;2023-01-19T01:09:03;8.50;;;7.60;;
45905;SDS011;31619;49.008;12.106;2023-01-19T01:11:35;9.23;;;7.80;;
45905;SDS011;31619;49.008;12.106;2023-01-19T01:14:05;9.43;;;7.13;;
45905;SDS011;31619;49.008;12.106;2023-01-19T01:16:32;9.40;;;7.90;;
45905;SDS011;31619;49.008;12.106;2023-01-19T01:18:57;11.37;;;7.67;;
45905;SDS011;31619;49.008;12.106;2023-01-19T01:21:23;8.20;;;7.10;;
45905;SDS011;31619;49.008;12.106;2023-01-19T01:23:48;8.37;;;7.37;;
45905;SDS011;31619;49.008;12.106;2023-01-19T01:26:14;12.30;;;7.63;;
45905;SDS011;31619;49.008;12.106;2023-01-19T01:28:40;7.23;;;6.33;;
45905;SDS011;31619;49.008;12.106;2023-01-19T01:31:05;8.53;;;6.17;;
45905;SDS011;31619;49.008;12.106;2023-01-19T01:33:31;8.17;;;6.57;;
45905;SDS011;31619;49.008;12.106;2023-01-19T01:35:56;7.53;;;6.77;;
45905;SDS011;31619;49.008;12.106;2023-01-19T01:38:22;8.27;;;6.73;;
45905;SDS011;31619;49.008;12.106;2023-01-19T01:40:48;8.13;;;5.93;;
45905;SDS011;31619;49.008;12.106;2023-01-19T01:43:15;9.30;;;5.83;;
45905;SDS011;31619;49.008;12.106;2023-01-19T01:45:42;8.80;;;6.73;;
45905;SDS011;31619;49.008;12.106;2023-01-19T01:48:12;9.43;;;6.80;;
45905;SDS011;31619;49.008;12.106;2023-01-19T01:50:53;8.23;;;7.37;;
45905;SDS011;31619;49.008;12.106;2023-01-19T01:53:42;11.07;;;7.70;;
45905;SDS011;31619;49.008;12.106;2023-01-19T01:56:12;12.70;;;8.60;;
45905;SDS011;31619;49.008;12.106;2023-01-19T01:58:41;8.00;;;6.93;;
45905;SDS011;31619;49.008;12.106;2023-01-19T02:01:08;10.90;;;7.97;;
45905;SDS011;31619;49.008;12.106;2023-01-19T02:03:52;10.60;;;7.13;;
45905;SDS011;31619;49.008;12.106;2023-01-19T02:06:20;10.67;;;7.40;;
45905;SDS011;31619;49.008;12.106;2023-01-19T02:08:49;7.50;;;6.17;;
45905;SDS011;31619;49.008;12.106;2023-01-19T02:11:49;9.27;;;7.40;;
45905;SDS011;31619;49.008;12.106;2023-01-19T02:14:34;8.07;;;7.27;;
45905;SDS011;31619;49.008;12.106;2023-01-19T02:17:03;11.47;;;7.17;;
45905;SDS011;31619;49.008;12.106;2023-01-19T02:19:30;11.23;;;7.70;;
45905;SDS011;31619;49.008;12.106;2023-01-19T02:22:08;10.50;;;7.80;;
45905;SDS011;31619;49.008;12.106;2023-01-19T02:24:39;13.93;;;8.57;;
45905;SDS011;31619;49.008;12.106;2023-01-19T02:27:05;10.53;;;7.13;;
45905;SDS011;31619;49.008;12.106;2023-01-19T02:29:32;10.83;;;8.10;;
45905;SDS011;31619;49.008;12.106;2023-01-19T02:31:58;11.43;;;8.40;;
45905;SDS011;31619;49.008;12.106;2023-01-19T02:34:26;11.43;;;7.67;;
45905;SDS011;31619;49.008;12.106;2023-01-19T02:36:53;9.60;;;7.67;;
45905;SDS011;31619;49.008;12.106;2023-01-19T02:39:26;8.13;;;6.87;;
45905;SDS011;31619;49.008;12.106;2023-01-19T02:42:05;11.67;;;8.80;;
45905;SDS011;31619;49.008;12.106;2023-01-19T02:44:35;13.30;;;8.93;;
45905;SDS011;31619;49.008;12.106;2023-01-19T02:47:02;11.07;;;8.50;;
45905;SDS011;31619;49.008;12.106;2023-01-19T02:49:29;8.37;;;6.83;;
45905;SDS011;31619;49.008;12.106;2023-01-19T02:51:55;11.77;;;8.23;;
45905;SDS011;31619;49.008;12.106;2023-01-19T03:00:01;9.30;;;7.90;;
45905;SDS011;31619;49.008;12.106;2023-01-19T03:05:31;10.87;;;7.97;;
45905;SDS011;31619;49.008;12.106;2023-01-19T03:11:12;10.37;;;7.67;;
45905;SDS011;31619;49.008;12.106;2023-01-19T03:16:19;9.40;;;7.77;;
45905;SDS011;31619;49.008;12.106;2023-01-19T03:18:46;9.23;;;7.90;;
45905;SDS011;31619;49.008;12.106;2023-01-19T03:21:17;10.70;;;8.47;;
45905;SDS011;31619;49.008;12.106;2023-01-19T03:23:45;10.13;;;8.20;;
45905;SDS011;31619;49.008;12.106;2023-01-19T03:26:15;6.97;;;6.00;;
45905;SDS011;31619;49.008;12.106;2023-01-19T03:28:44;13.03;;;8.00;;
45905;SDS011;31619;49.008;12.106;2023-01-19T03:31:16;10.30;;;8.37;;
45905;SDS011;31619;49.008;12.106;2023-01-19T03:33:48;10.37;;;8.30;;
45905;SDS011;31619;49.008;12.106;2023-01-19T03:36:18;8.43;;;7.53;;
45905;SDS011;31619;49.008;12.106;2023-01-19T03:38:59;11.77;;;7.50;;
45905;SDS011;31619;49.008;12.106;2023-01-19T03:41:27;12.87;;;7.83;;
45905;SDS011;31619;49.008;12.106;2023-01-19T03:43:55;6.67;;;5.77;;
45905;SDS011;31619;49.008;12.106;2023-01-19T03:46:21;9.00;;;6.93;;
45905;SDS011;31619;49.008;12.106;2023-01-19T03:48:48;10.27;;;8.60;;
45905;SDS011;31619;49.008;12.106;2023-01-19T03:51:14;9.50;;;7.63;;
45905;SDS011;31619;49.008;12.106;2023-01-19T03:53:41;8.00;;;7.20;;
45905;SDS011;31619;49.008;12.106;2023-01-19T03:56:10;10.20;;;7.77;;
45905;SDS011;31619;49.008;12.106;2023-01-19T03:58:44;9.70;;;8.20;;
45905;SDS011;31619;49.008;12.106;2023-01-19T04:01:10;10.07;;;7.70;;
45905;SDS011;31619;49.008;12.106;2023-01-19T04:03:37;12.37;;;8.10;;
45905;SDS011;31619;49.008;12.106;2023-01-19T04:06:03;11.30;;;8.47;;
45905;SDS011;31619;49.008;12.106;2023-01-19T04:08:29;10.97;;;8.50;;
45905;SDS011;31619;49.008;12.106;2023-01-19T04:10:56;9.50;;;7.37;;
45905;SDS011;31619;49.008;12.106;2023-01-19T04:13:22;9.53;;;7.47;;
45905;SDS011;31619;49.008;12.106;2023-01-19T04:15:47;8.53;;;7.23;;
45905;SDS011;31619;49.008;12.106;2023-01-19T04:18:13;10.87;;;8.30;;
45905;SDS011;31619;49.008;12.106;2023-01-19T04:20:38;9.80;;;8.07;;
45905;SDS011;31619;49.008;12.106;2023-01-19T04:23:04;9.70;;;8.00;;
45905;SDS011;31619;49.008;12.106;2023-01-19T04:25:30;9.83;;;7.70;;
45905;SDS011;31619;49.008;12.106;2023-01-19T04:27:55;8.67;;;7.73;;
45905;SDS011;31619;49.008;12.106;2023-01-19T04:30:24;8.50;;;7.57;;
45905;SDS011;31619;49.008;12.106;2023-01-19T04:32:51;6.50;;;5.77;;
45905;SDS011;31619;49.008;12.106;2023-01-19T04:35:17;8.40;;;7.37;;
45905;SDS011;31619;49.008;12.106;2023-01-19T04:37:43;10.97;;;7.53;;
45905;SDS011;31619;49.008;12.106;2023-01-19T04:40:09;9.53;;;8.17;;
45905;SDS011;31619;49.008;12.106;2023-01-19T04:42:35;11.53;;;8.30;;
45905;SDS011;31619;49.008;12.106;2023-01-19T04:45:01;9.73;;;8.20;;
45905;SDS011;31619;49.008;12.106;2023-01-19T04:47:26;9.73;;;8.23;;
45905;SDS011;31619;49.008;12.106;2023-01-19T04:49:52;8.63;;;7.57;;
45905;SDS011;31619;49.008;12.106;2023-01-19T04:52:18;10.13;;;7.87;;
45905;SDS011;31619;49.008;12.106;2023-01-19T04:54:44;12.00;;;8.57;;
45905;SDS011;31619;49.008;12.106;2023-01-19T04:57:09;9.77;;;8.13;;
45905;SDS011;31619;49.008;12.106;2023-01-19T04:59:35;11.43;;;8.80;;
45905;SDS011;31619;49.008;12.106;2023-01-19T05:02:00;11.17;;;9.00;;
45905;SDS011;31619;49.008;12.106;2023-01-19T05:04:26;10.23;;;8.53;;
45905;SDS011;31619;49.008;12.106;2023-01-19T05:06:52;10.70;;;8.63;;
45905;SDS011;31619;49.008;12.106;2023-01-19T05:09:18;9.70;;;8.20;;
45905;SDS011;31619;49.008;12.106;2023-01-19T05:11:43;12.13;;;9.33;;
45905;SDS011;31619;49.008;12.106;2023-01-19T05:14:09;11.00;;;8.80;;
45905;SDS011;31619;49.008;12.106;2023-01-19T05:16:35;12.67;;;9.87;;
45905;SDS011;31619;49.008;12.106;2023-01-19T05:19:01;12.70;;;9.03;;
45905;SDS011;31619;49.008;12.106;2023-01-19T05:21:26;11.83;;;8.67;;
45905;SDS011;31619;49.008;12.106;2023-01-19T05:23:52;14.33;;;10.07;;
45905;SDS011;31619;49.008;12.106;2023-01-19T05:26:17;11.03;;;9.40;;
45905;SDS011;31619;49.008;12.106;2023-01-19T05:28:43;13.37;;;9.57;;
45905;SDS011;31619;49.008;12.106;2023-01-19T05:31:09;11.27;;;8.37;;
45905;SDS011;31619;49.008;12.106;2023-01-19T05:33:34;10.40;;;9.03;;
45905;SDS011;31619;49.008;12.106;2023-01-19T05:36:00;9.83;;;8.37;;
45905;SDS011;31619;49.008;12.106;2023-01-19T05:38:26;12.60;;;9.00;;
45905;SDS011;31619;49.008;12.106;2023-01-19T05:40:57;9.67;;;8.43;;
45905;SDS011;31619;49.008;12.106;2023-01-19T05:43:23;12.30;;;9.53;;
45905;SDS011;31619;49.008;12.106;2023-01-19T05:45:49;9.37;;;7.40;;
45905;SDS011;31619;49.008;12.106;2023-01-19T05:48:15;11.93;;;10.63;;
45905;SDS011;31619;49.008;12.106;2023-01-19T05:50:41;15.00;;;9.53;;
45905;SDS011;31619;49.008;12.106;2023-01-19T05:53:07;12.70;;;9.10;;
45905;SDS011;31619;49.008;12.106;2023-01-19T05:55:32;15.60;;;9.87;;
45905;SDS011;31619;49.008;12.106;2023-01-19T05:57:58;12.10;;;8.37;;
45905;SDS011;31619;49.008;12.106;2023-01-19T06:00:24;11.73;;;8.73;;
45905;SDS011;31619;49.008;12.106;2023-01-19T06:02:51;12.23;;;8.43;;
45905;SDS011;31619;49.008;12.106;2023-01-19T06:05:17;12.40;;;8.73;;
45905;SDS011;31619;49.008;12.106;2023-01-19T06:07:42;9.77;;;8.40;;
45905;SDS011;31619;49.008;12.106;2023-01-19T06:10:08;12.03;;;9.50;;
45905;SDS011;31619;49.008;12.106;2023-01-19T06:12:34;11.50;;;9.20;;
45905;SDS011;31619;49.008;12.106;2023-01-19T06:15:01;14.57;;;9.50;;
45905;SDS011;31619;49.008;12.106;2023-01-19T06:17:26;11.40;;;9.40;;
45905;SDS011;31619;49.008;12.106;2023-01-19T06:19:52;11.77;;;9.10;;
45905;SDS011;31619;49.008;12.106;2023-01-19T06:22:17;11.13;;;9.43;;
45905;SDS011;31619;49.008;12.106;2023-01-19T06:24:43;16.70;;;10.13;;
45905;SDS011;31619;49.008;12.106;2023-01-19T06:27:09;15.77;;;10.57;;
45905;SDS011;31619;49.008;12.106;2023-01-19T06:29:35;11.53;;;10.03;;
45905;SDS011;31619;49.008;12.106;2023-01-19T06:32:00;10.93;;;9.53;;
45905;SDS011;31619;49.008;12.106;2023-01-19T06:34:26;10.07;;;8.37;;
45905;SDS011;31619;49.008;12.106;2023-01-19T06:36:53;10.37;;;9.30;;
45905;SDS011;31619;49.008;12.106;2023-01-19T06:39:20;10.20;;;8.67;;
45905;SDS011;31619;49.008;12.106;2023-01-19T06:41:45;10.23;;;9.00;;
45905;SDS011;31619;49.008;12.106;2023-01-19T06:44:11;10.70;;;9.20;;
45905;SDS011;31619;49.008;12.106;2023-01-19T06:46:37;11.50;;;9.47;;
45905;SDS011;31619;49.008;12.106;2023-01-19T06:49:02;10.83;;;9.20;;
45905;SDS011;31619;49.008;12.106;2023-01-19T06:51:28;10.97;;;9.07;;
45905;SDS011;31619;49.008;12.106;2023-01-19T06:53:53;11.30;;;9.53;;
45905;SDS011;31619;49.008;12.106;2023-01-19T06:56:19;13.23;;;9.77;;
45905;SDS011;31619;49.008;12.106;2023-01-19T06:58:48;11.53;;;9.00;;
45905;SDS011;31619;49.008;12.106;2023-01-19T07:01:14;12.40;;;9.90;;
45905;SDS011;31619;49.008;12.106;2023-01-19T07:03:40;11.97;;;9.60;;
45905;SDS011;31619;49.008;12.106;2023-01-19T07:06:06;12.37;;;8.53;;
45905;SDS011;31619;49.008;12.106;2023-01-19T07:08:32;13.07;;;9.97;;
45905;SDS011;31619;49.008;12.106;2023-01-19T07:11:02;12.07;;;10.17;;
45905;SDS011;31619;49.008;12.106;2023-01-19T07:13:32;11.73;;;9.40;;
45905;SDS011;31619;49.008;12.106;2023-01-19T07:16:03;10.00;;;8.03;;
45905;SDS011;31619;49.008;12.106;2023-01-19T07:18:33;10.53;;;8.37;;
45905;SDS011;31619;49.008;12.106;2023-01-19T07:20:59;20.93;;;9.13;;
45905;SDS011;31619;49.008;12.106;2023-01-19T07:23:25;11.57;;;9.10;;
45905;SDS011;31619;49.008;12.106;2023-01-19T07:25:54;10.93;;;9.30;;
45905;SDS011;31619;49.008;12.106;2023-01-19T07:28:25;10.07;;;8.97;;
45905;SDS011;31619;49.008;12.106;2023-01-19T07:30:51;11.07;;;9.50;;
45905;SDS011;31619;49.008;12.106;2023-01-19T07:33:17;9.67;;;8.67;;
45905;SDS011;31619;49.008;12.106;2023-01-19T07:35:49;12.03;;;9.07;;
45905;SDS011;31619;49.008;12.106;2023-01-19T07:38:16;13.30;;;9.27;;
45905;SDS011;31619;49.008;12.106;2023-01-19T07:40:42;9.70;;;7.20;;
45905;SDS011;31619;49.008;12.106;2023-01-19T07:43:08;12.80;;;9.60;;
45905;SDS011;31619;49.008;12.106;2023-01-19T07:45:34;11.33;;;8.63;;
45905;SDS011;31619;49.008;12.106;2023-01-19T07:48:00;10.57;;;7.50;;
45905;SDS011;31619;49.008;12.106;2023-01-19T07:50:26;9.93;;;8.53;;
45905;SDS011;31619;49.008;12.106;2023-01-19T07:52:53;13.30;;;8.17;;
45905;SDS011;31619;49.008;12.106;2023-01-19T07:55:19;9.63;;;8.40;;
45905;SDS011;31619;49.008;12.106;2023-01-19T07:57:52;11.27;;;8.87;;
45905;SDS011;31619;49.008;12.106;2023-01-19T08:00:18;12.63;;;8.93;;
45905;SDS011;31619;49.008;12.106;2023-01-19T08:02:46;12.83;;;9.50;;
45905;SDS011;31619;49.008;12.106;2023-01-19T08:05:14;6.07;;;4.80;;
45905;SDS011;31619;49.008;12.106;2023-01-19T08:07:41;12.33;;;9.40;;
45905;SDS011;31619;49.008;12.106;2023-01-19T08:10:07;9.90;;;8.07;;
45905;SDS011;31619;49.008;12.106;2023-01-19T08:12:33;9.93;;;8.90;;
45905;SDS011;31619;49.008;12.106;2023-01-19T08:14:58;10.93;;;7.97;;
45905;SDS011;31619;49.008;12.106;2023-01-19T08:17:24;12.80;;;9.37;;
45905;SDS011;31619;49.008;12.106;2023-01-19T08:19:50;10.63;;;8.37;;
45905;SDS011;31619;49.008;12.106;2023-01-19T08:22:15;8.97;;;7.23;;
45905;SDS011;31619;49.008;12.106;2023-01-19T08:24:41;6.13;;;4.87;;
45905;SDS011;31619;49.008;12.106;2023-01-19T08:27:06;13.17;;;7.63;;
45905;SDS011;31619;49.008;12.106;2023-01-19T08:29:33;10.03;;;8.23;;
45905;SDS011;31619;49.008;12.106;2023-01-19T08:31:59;8.97;;;5.57;;
45905;SDS011;31619;49.008;12.106;2023-01-19T08:34:27;8.57;;;7.73;;
45905;SDS011;31619;49.008;12.106;2023-01-19T08:36:54;8.90;;;7.77;;
45905;SDS011;31619;49.008;12.106;2023-01-19T08:39:20;10.80;;;7.30;;
45905;SDS011;31619;49.008;12.106;2023-01-19T08:41:47;10.60;;;7.63;;
45905;SDS011;31619;49.008;12.106;2023-01-19T08:44:14;7.93;;;7.13;;
45905;SDS011;31619;49.008;12.106;2023-01-19T08:46:40;9.20;;;8.30;;
45905;SDS011;31619;49.008;12.106;2023-01-19T08:49:05;10.40;;;8.57;;
45905;SDS011;31619;49.008;12.106;2023-01-19T08:51:31;9.67;;;7.80;;
45905;SDS011;31619;49.008;12.106;2023-01-19T08:53:57;10.23;;;7.47;;
45905;SDS011;31619;49.008;12.106;2023-01-19T08:56:23;10.43;;;7.63;;
45905;SDS011;31619;49.008;12.106;2023-01-19T08:58:48;7.80;;;6.70;;
45905;SDS011;31619;49.008;12.106;2023-01-19T09:01:14;8.83;;;6.87;;
45905;SDS011;31619;49.008;12.106;2023-01-19T09:03:41;9.57;;;6.10;;
45905;SDS011;31619;49.008;12.106;2023-01-19T09:06:07;7.83;;;6.33;;
45905;SDS011;31619;49.008;12.106;2023-01-19T09:08:34;6.77;;;6.00;;
45905;SDS011;31619;49.008;12.106;2023-01-19T09:11:00;9.13;;;7.57;;
45905;SDS011;31619;49.008;12.106;2023-01-19T09:13:25;7.87;;;6.97;;
45905;SDS011;31619;49.008;12.106;2023-01-19T09:15:51;9.50;;;7.57;;
45905;SDS011;31619;49.008;12.106;2023-01-19T09:18:18;8.80;;;4.93;;
45905;SDS011;31619;49.008;12.106;2023-01-19T09:20:46;7.53;;;6.78;;
45905;SDS011;31619;49.008;12.106;2023-01-19T09:23:13;7.88;;;6.57;;
45905;SDS011;31619;49.008;12.106;2023-01-19T09:25:42;8.40;;;6.18;;
45905;SDS011;31619;49.008;12.106;2023-01-19T09:28:10;8.20;;;7.10;;
45905;SDS011;31619;49.008;12.106;2023-01-19T09:30:37;10.25;;;7.45;;
45905;SDS011;31619;49.008;12.106;2023-01-19T09:33:04;10.05;;;8.13;;
45905;SDS011;31619;49.008;12.106;2023-01-19T09:35:34;9.93;;;7.88;;
45905;SDS011;31619;49.008;12.106;2023-01-19T09:38:00;5.93;;;5.35;;
45905;SDS011;31619;49.008;12.106;2023-01-19T09:40:25;5.72;;;4.68;;
45905;SDS011;31619;49.008;12.106;2023-01-19T09:43:12;8.15;;;6.13;;
45905;SDS011;31619;49.008;12.106;2023-01-19T09:45:57;8.23;;;5.88;;
45905;SDS011;31619;49.008;12.106;2023-01-19T09:48:29;9.40;;;7.07;;
45905;SDS011;31619;49.008;12.106;2023-01-19T09:51:05;6.80;;;4.97;;
45905;SDS011;31619;49.008;12.106;2023-01-19T09:53:41;10.68;;;5.85;;
45905;SDS011;31619;49.008;12.106;2023-01-19T09:56:26;5.18;;;4.68;;
45905;SDS011;31619;49.008;12.106;2023-01-19T09:58:53;6.90;;;6.30;;
45905;SDS011;31619;49.008;12.106;2023-01-19T10:01:31;6.95;;;5.72;;
45905;SDS011;31619;49.008;12.106;2023-01-19T10:06:45;11.60;;;6.40;;
45905;SDS011;31619;49.008;12.106;2023-01-19T10:09:28;7.40;;;6.28;;
45905;SDS011;31619;49.008;12.106;2023-01-19T10:12:11;6.32;;;4.72;;
45905;SDS011;31619;49.008;12.106;2023-01-19T10:20:34;6.57;;;5.40;;
45905;SDS011;31619;49.008;12.106;2023-01-19T10:25:44;7.28;;;6.13;;
45905;SDS011;31619;49.008;12.106;2023-01-19T10:28:10;5.80;;;5.20;;
45905;SDS011;31619;49.008;12.106;2023-01-19T10:30:38;5.18;;;4.50;;
45905;SDS011;31619;49.008;12.106;2023-01-19T10:33:06;7.38;;;4.95;;
45905;SDS011;31619;49.008;12.106;2023-01-19T10:35:35;7.18;;;4.97;;
45905;SDS011;31619;49.008;12.106;2023-01-19T10:38:00;5.55;;;4.50;;
45905;SDS011;31619;49.008;12.106;2023-01-19T10:40:37;5.30;;;4.80;;
45905;SDS011;31619;49.008;12.106;2023-01-19T10:45:59;6.35;;;5.38;;
45905;SDS011;31619;49.008;12.106;2023-01-19T10:48:25;6.25;;;5.47;;
45905;SDS011;31619;49.008;12.106;2023-01-19T10:51:03;8.98;;;5.28;;
45905;SDS011;31619;49.008;12.106;2023-01-19T10:53:29;5.32;;;4.82;;
45905;SDS011;31619;49.008;12.106;2023-01-19T10:58:59;5.55;;;5.05;;
45905;SDS011;31619;49.008;12.106;2023-01-19T11:01:26;5.72;;;5.22;;
45905;SDS011;31619;49.008;12.106;2023-01-19T11:03:53;5.90;;;5.07;;
45905;SDS011;31619;49.008;12.106;2023-01-19T11:06:28;4.88;;;3.78;;
45905;SDS011;31619;49.008;12.106;2023-01-19T11:09:14;5.68;;;4.72;;
45905;SDS011;31619;49.008;12.106;2023-01-19T11:11:48;5.13;;;4.63;;
45905;SDS011;31619;49.008;12.106;2023-01-19T11:14:16;7.72;;;4.90;;
45905;SDS011;31619;49.008;12.106;2023-01-19T11:16:45;4.82;;;4.40;;
45905;SDS011;31619;49.008;12.106;2023-01-19T11:19:16;5.50;;;5.05;;
45905;SDS011;31619;49.008;12.106;2023-01-19T11:21:44;6.72;;;5.45;;
45905;SDS011;31619;49.008;12.106;2023-01-19T11:24:09;6.75;;;5.00;;
45905;SDS011;31619;49.008;12.106;2023-01-19T11:26:42;5.20;;;4.25;;
45905;SDS011;31619;49.008;12.106;2023-01-19T11:29:21;7.55;;;5.13;;
45905;SDS011;31619;49.008;12.106;2023-01-19T11:31:49;5.10;;;4.70;;
45905;SDS011;31619;49.008;12.106;2023-01-19T11:34:29;5.53;;;4.88;;
45905;SDS011;31619;49.008;12.106;2023-01-19T11:37:24;4.25;;;3.83;;
45905;SDS011;31619;49.008;12.106;2023-01-19T11:39:57;5.13;;;4.70;;
45905;SDS011;31619;49.008;12.106;2023-01-19T11:42:24;4.35;;;3.97;;
45905;SDS011;31619;49.008;12.106;2023-01-19T11:52:33;4.78;;;4.40;;
45905;SDS011;31619;49.008;12.106;2023-01-19T11:57:35;4.88;;;4.05;;
45905;SDS011;31619;49.008;12.106;2023-01-19T12:00:03;4.95;;;4.35;;
45905;SDS011;31619;49.008;12.106;2023-01-19T12:02:43;4.60;;;4.20;;
45905;SDS011;31619;49.008;12.106;2023-01-19T12:05:12;4.70;;;4.18;;
45905;SDS011;31619;49.008;12.106;2023-01-19T12:07:43;3.33;;;3.10;;
45905;SDS011;31619;49.008;12.106;2023-01-19T12:10:18;5.00;;;4.53;;
45905;SDS011;31619;49.008;12.106;2023-01-19T12:12:53;5.57;;;4.50;;
45905;SDS011;31619;49.008;12.106;2023-01-19T12:15:36;5.68;;;4.55;;
45905;SDS011;31619;49.008;12.106;2023-01-19T12:18:06;5.20;;;4.60;;
45905;SDS011;31619;49.008;12.106;2023-01-19T12:28:32;4.30;;;3.90;;
45905;SDS011;31619;49.008;12.106;2023-01-19T12:31:01;3.95;;;3.65;;
45905;SDS011;31619;49.008;12.106;2023-01-19T12:35:54;3.90;;;3.60;;
45905;SDS011;31619;49.008;12.106;2023-01-19T12:38:23;5.15;;;4.65;;
45905;SDS011;31619;49.008;12.106;2023-01-19T12:46:35;5.57;;;4.70;;
45905;SDS011;31619;49.008;12.106;2023-01-19T12:51:46;3.28;;;3.00;;
45905;SDS011;31619;49.008;12.106;2023-01-19T12:54:19;4.20;;;3.70;;
45905;SDS011;31619;49.008;12.106;2023-01-19T12:56:57;3.83;;;2.88;;
45905;SDS011;31619;49.008;12.106;2023-01-19T12:59:26;3.28;;;2.97;;
45905;SDS011;31619;49.008;12.106;2023-01-19T13:04:41;4.22;;;3.30;;
45905;SDS011;31619;49.008;12.106;2023-01-19T13:15:52;5.93;;;4.03;;
45905;SDS011;31619;49.008;12.106;2023-01-19T13:18:19;6.05;;;4.13;;
45905;SDS011;31619;49.008;12.106;2023-01-19T13:20:45;5.45;;;4.22;;
45905;SDS011;31619;49.008;12.106;2023-01-19T13:23:18;5.88;;;4.25;;
45905;SDS011;31619;49.008;12.106;2023-01-19T13:25:48;4.80;;;4.40;;
45905;SDS011;31619;49.008;12.106;2023-01-19T13:28:27;4.75;;;3.80;;
45905;SDS011;31619;49.008;12.106;2023-01-19T13:30:57;3.72;;;3.42;;
45905;SDS011;31619;49.008;12.106;2023-01-19T13:33:27;4.05;;;3.70;;
45905;SDS011;31619;49.008;12.106;2023-01-19T13:35:59;5.63;;;4.75;;
45905;SDS011;31619;49.008;12.106;2023-01-19T13:38:25;3.78;;;3.47;;
45905;SDS011;31619;49.008;12.106;2023-01-19T13:40:52;4.00;;;3.58;;
45905;SDS011;31619;49.008;12.106;2023-01-19T13:43:21;4.90;;;4.50;;
45905;SDS011;31619;49.008;12.106;2023-01-19T13:45:51;4.65;;;3.63;;
45905;SDS011;31619;49.008;12.106;2023-01-19T13:48:18;6.47;;;4.60;;
45905;SDS011;31619;49.008;12.106;2023-01-19T13:50:58;5.10;;;4.38;;
45905;SDS011;31619;49.008;12.106;2023-01-19T13:53:31;4.30;;;3.90;;
45905;SDS011;31619;49.008;12.106;2023-01-19T13:56:07;4.88;;;4.10;;
45905;SDS011;31619;49.008;12.106;2023-01-19T13:58:39;9.13;;;4.85;;
45905;SDS011;31619;49.008;12.106;2023-01-19T14:01:05;5.65;;;4.43;;
45905;SDS011;31619;49.008;12.106;2023-01-19T14:03:42;4.78;;;4.38;;
45905;SDS011;31619;49.008;12.106;2023-01-19T14:06:19;5.72;;;4.95;;
45905;SDS011;31619;49.008;12.106;2023-01-19T14:09:32;6.75;;;4.40;;
45905;SDS011;31619;49.008;12.106;2023-01-19T14:12:11;5.63;;;4.93;;
45905;SDS011;31619;49.008;12.106;2023-01-19T14:14:38;7.38;;;5.18;;
45905;SDS011;31619;49.008;12.106;2023-01-19T14:17:16;5.88;;;5.10;;
45905;SDS011;31619;49.008;12.106;2023-01-19T14:19:47;6.25;;;5.60;;
45905;SDS011;31619;49.008;12.106;2023-01-19T14:22:13;5.82;;;4.85;;
45905;SDS011;31619;49.008;12.106;2023-01-19T14:24:39;5.60;;;5.00;;
45905;SDS011;31619;49.008;12.106;2023-01-19T14:29:34;8.95;;;4.93;;
45905;SDS011;31619;49.008;12.106;2023-01-19T14:32:09;5.93;;;5.30;;
45905;SDS011;31619;49.008;12.106;2023-01-19T14:34:38;7.47;;;5.50;;
45905;SDS011;31619;49.008;12.106;2023-01-19T14:37:15;6.93;;;6.32;;
45905;SDS011;31619;49.008;12.106;2023-01-19T14:42:36;8.15;;;5.03;;
45905;SDS011;31619;49.008;12.106;2023-01-19T14:47:43;7.60;;;6.03;;
45905;SDS011;31619;49.008;12.106;2023-01-19T14:50:18;7.60;;;6.35;;
45905;SDS011;31619;49.008;12.106;2023-01-19T14:53:02;8.00;;;6.35;;
45905;SDS011;31619;49.008;12.106;2023-01-19T14:55:43;6.60;;;5.78;;
45905;SDS011;31619;49.008;12.106;2023-01-19T14:58:12;8.32;;;6.50;;
45905;SDS011;31619;49.008;12.106;2023-01-19T15:00:40;10.23;;;6.78;;
45905;SDS011;31619;49.008;12.106;2023-01-19T15:03:07;6.45;;;5.85;;
45905;SDS011;31619;49.008;12.106;2023-01-19T15:05:34;8.38;;;4.43;;
45905;SDS011;31619;49.008;12.106;2023-01-19T15:08:01;7.38;;;6.32;;
45905;SDS011;31619;49.008;12.106;2023-01-19T15:10:28;11.43;;;6.95;;
45905;SDS011;31619;49.008;12.106;2023-01-19T15:12:54;8.43;;;7.28;;
45905;SDS011;31619;49.008;12.106;2023-01-19T15:15:28;9.40;;;4.70;;
45905;SDS011;31619;49.008;12.106;2023-01-19T15:17:56;9.18;;;6.60;;
45905;SDS011;31619;49.008;12.106;2023-01-19T15:20:24;10.27;;;7.07;;
45905;SDS011;31619;49.008;12.106;2023-01-19T15:22:50;5.63;;;4.07;;
45905;SDS011;31619;49.008;12.106;2023-01-19T15:25:16;7.70;;;5.80;;
45905;SDS011;31619;49.008;12.106;2023-01-19T15:27:44;6.85;;;6.22;;
45905;SDS011;31619;49.008;12.106;2023-01-19T15:30:20;9.02;;;6.60;;
45905;SDS011;31619;49.008;12.106;2023-01-19T15:33:00;9.02;;;6.22;;
45905;SDS011;31619;49.008;12.106;2023-01-19T15:35:26;11.88;;;7.30;;
45905;SDS011;31619;49.008;12.106;2023-01-19T15:37:51;9.50;;;6.45;;
45905;SDS011;31619;49.008;12.106;2023-01-19T15:40:17;8.63;;;6.80;;
45905;SDS011;31619;49.008;12.106;2023-01-19T15:42:44;7.78;;;6.97;;
45905;SDS011;31619;49.008;12.106;2023-01-19T15:45:31;9.00;;;7.15;;
45905;SDS011;31619;49.008;12.106;2023-01-19T15:48:20;7.32;;;6.57;;
45905;SDS011;31619;49.008;12.106;2023-01-19T15:50:46;7.35;;;4.78;;
45905;SDS011;31619;49.008;12.106;2023-01-19T15:53:12;11.15;;;7.50;;
45905;SDS011;31619;49.008;12.106;2023-01-19T15:55:41;7.93;;;7.13;;
45905;SDS011;31619;49.008;12.106;2023-01-19T15:58:07;8.77;;;6.60;;
45905;SDS011;31619;49.008;12.106;2023-01-19T16:00:33;10.93;;;8.02;;
45905;SDS011;31619;49.008;12.106;2023-01-19T16:02:59;11.07;;;7.40;;